PDT,Max TemperatureF,Mean TemperatureF,Min TemperatureF,Max Dew PointF,MeanDew PointF,Min DewpointF,Max Humidity, Mean Humidity, Min Humidity, Max Sea Level PressureIn, Mean Sea Level PressureIn, Min Sea Level PressureIn, Max VisibilityMiles, Mean VisibilityMiles, Min VisibilityMiles, Max Wind SpeedMPH, Mean Wind SpeedMPH, Max Gust SpeedMPH,PrecipitationIn, CloudCover, Events, WindDirDegrees
2013-8-1,89,73,56,53,50,42,67,44,21,29.93,29.89,29.84,10,10,9,23,9,29,0.00,1,,287
2013-8-2,79,70,60,54,51,49,72,56,40,30.04,29.99,29.94,10,10,10,13,4,16,0.00,3,,9
2013-8-3,85,71,56,56,52,48,83,56,29,30.10,30.04,29.97,10,10,10,9,5,14,0.00,1,,214
2013-8-4,93,74,55,57,53,49,86,55,24,30.04,29.96,29.87,10,10,10,9,5,13,0.00,1,,243
2013-8-5,96,79,61,58,52,47,72,46,20,29.96,29.90,29.81,10,10,10,13,5,20,T,1,,255
2013-8-6,98,80,61,58,44,36,56,34,12,29.94,29.87,29.79,10,10,10,16,6,21,0.00,0,,295
2013-8-7,98,81,63,47,42,35,49,31,13,29.91,29.86,29.80,10,10,10,15,6,21,0.00,0,,312
2013-8-8,95,80,64,55,46,37,52,33,14,29.91,29.86,29.80,10,10,10,14,4,20,0.00,0,,325
2013-8-9,97,82,66,57,53,49,68,44,20,29.87,29.80,29.71,10,10,4,33,7,44,0.00,1,Thunderstorm,246
2013-8-10,93,79,65,61,56,46,73,48,23,29.91,29.87,29.78,10,10,10,24,6,33,T,2,Rain-Thunderstorm,274
2013-8-11,88,75,62,59,56,49,84,55,26,29.97,29.93,29.86,10,10,10,13,5,15,0.00,2,,241
2013-8-12,91,73,54,54,50,44,83,52,21,30.00,29.94,29.88,10,10,9,12,6,18,0.00,0,,242
2013-8-13,93,75,56,53,47,35,77,46,14,30.02,29.95,29.88,10,10,10,15,5,81,0.00,0,,246
2013-8-14,96,75,54,53,48,36,72,44,15,29.92,29.87,29.80,10,10,7,16,5,29,0.00,0,,252
2013-8-15,92,76,59,58,54,49,78,51,24,29.92,29.88,29.83,10,10,10,18,5,26,0.00,0,,276
2013-8-16,88,77,66,58,55,49,73,51,29,29.98,29.93,29.88,10,10,10,13,4,15,0.01,3,Rain,238
2013-8-17,89,73,56,57,52,43,86,54,21,29.99,29.95,29.91,10,10,10,18,6,24,0.00,1,,298
2013-8-18,92,72,52,54,50,46,83,52,21,30.06,29.99,29.91,10,10,10,16,4,24,0.00,0,,303
2013-8-19,91,73,54,53,50,48,83,55,26,30.01,29.98,29.92,10,10,10,16,7,32,0.00,0,,303
2013-8-20,89,70,50,50,44,35,71,44,16,30.06,30.00,29.92,10,10,10,15,5,,0.00,0,,282
2013-8-21,91,71,51,53,45,37,77,47,17,30.06,29.99,29.91,10,10,10,12,6,28,0.00,0,,263
2013-8-22,90,71,52,56,47,40,72,45,18,29.94,29.86,29.76,10,10,10,13,5,29,0.00,0,Thunderstorm,257
2013-8-23,87,75,63,59,53,48,73,51,29,29.81,29.77,29.73,10,10,10,16,6,17,0.01,4,,215
2013-8-24,85,70,54,52,49,44,83,55,27,29.83,29.79,29.72,10,10,10,20,6,26,T,2,,282
2013-8-25,83,70,56,61,51,45,90,60,30,29.90,29.85,29.79,10,10,6,17,5,23,0.13,3,Rain,274
2013-8-26,81,67,52,57,52,43,100,66,31,29.96,29.91,29.86,10,10,2,25,6,22,T,3,Rain,232
2013-8-27,86,68,49,57,51,46,89,61,32,29.96,29.87,29.75,10,10,10,10,4,14,0.00,1,,277
2013-8-28,90,73,56,58,54,49,86,56,26,29.86,29.81,29.77,10,10,10,16,5,21,0.00,1,,270
2013-8-29,86,74,61,62,55,51,78,55,32,30.01,29.90,29.83,10,10,10,17,6,23,0.04,2,,275
2013-8-30,87,70,53,55,51,46,93,60,27,30.11,30.05,30.00,10,10,10,10,4,13,0.00,1,,269
2013-8-31,88,70,51,55,50,46,86,55,24,30.07,29.97,29.85,10,10,10,13,5,15,0.00,0,,262